createdAt,value
2023-02-02T00:01:15.486Z,73.41
2023-02-02T00:03:42.639Z,73.68
2023-02-02T00:06:10.200Z,73.47
2023-02-02T00:08:38.351Z,73.57
2023-02-02T00:11:06.608Z,73.47
2023-02-02T00:13:34.158Z,73.48
2023-02-02T00:16:41.078Z,73.61
2023-02-02T00:19:09.987Z,73.70
2023-02-02T00:21:38.331Z,73.61
2023-02-02T00:24:07.643Z,73.54
2023-02-02T00:26:35.714Z,73.62
2023-02-02T00:29:03.530Z,73.55
2023-02-02T00:31:31.222Z,73.62
2023-02-02T00:33:58.497Z,73.59
2023-02-02T00:36:26.309Z,73.50
2023-02-02T00:38:53.742Z,73.35
2023-02-02T00:41:21.050Z,73.33
2023-02-02T00:44:09.371Z,73.26
2023-02-02T00:46:39.877Z,73.23
2023-02-02T00:49:07.851Z,73.37
2023-02-02T00:51:36.824Z,73.31
2023-02-02T00:54:04.755Z,73.47
2023-02-02T00:56:32.291Z,73.46
2023-02-02T00:58:59.696Z,73.47
2023-02-02T01:01:27.360Z,73.47
2023-02-02T01:03:54.713Z,73.51
2023-02-02T01:06:21.914Z,73.57
2023-02-02T01:08:49.072Z,73.60
2023-02-02T01:11:17.291Z,73.70
2023-02-02T01:13:44.571Z,73.75
2023-02-02T01:16:12.185Z,73.90
2023-02-02T01:18:40.284Z,73.79
2023-02-02T01:21:10.821Z,73.83
2023-02-02T01:23:39.216Z,74.03
2023-02-02T01:26:10.815Z,74.02
2023-02-02T01:28:38.427Z,73.92
2023-02-02T01:31:19.769Z,73.97
2023-02-02T01:33:48.430Z,73.88
2023-02-02T01:36:18.783Z,74.00
2023-02-02T01:38:46.794Z,74.06
2023-02-02T01:41:18.374Z,73.95
2023-02-02T01:43:46.624Z,73.92
2023-02-02T01:46:16.497Z,74.06
2023-02-02T01:48:51.917Z,73.90
2023-02-02T01:51:35.501Z,73.93
2023-02-02T01:54:05.801Z,73.96
2023-02-02T01:56:43.186Z,74.09
2023-02-02T01:59:13.028Z,74.05
2023-02-02T02:01:40.253Z,74.01
2023-02-02T02:04:07.429Z,73.91
2023-02-02T02:06:34.681Z,74.00
2023-02-02T02:09:05.030Z,74.09
2023-02-02T02:11:34.896Z,74.03
2023-02-02T02:14:27.216Z,74.05
2023-02-02T02:17:39.575Z,73.99
2023-02-02T02:20:40.851Z,73.96
2023-02-02T02:23:36.031Z,73.94
2023-02-02T02:26:37.050Z,73.97
2023-02-02T02:29:27.091Z,74.10
2023-02-02T02:32:14.272Z,74.02
2023-02-02T02:35:06.417Z,74.01
2023-02-02T02:37:58.178Z,73.94
2023-02-02T02:40:40.350Z,74.12
2023-02-02T02:43:20.531Z,73.97
2023-02-02T02:45:48.866Z,74.05
2023-02-02T02:48:16.834Z,74.06
2023-02-02T02:50:44.645Z,74.05
2023-02-02T02:53:18.938Z,74.12
2023-02-02T02:55:54.823Z,74.19
2023-02-02T02:58:37.155Z,74.12
2023-02-02T03:01:18.388Z,74.07
2023-02-02T03:04:07.216Z,74.08
2023-02-02T03:07:00.355Z,74.08
2023-02-02T03:09:34.927Z,74.19
2023-02-02T03:12:02.509Z,74.13
2023-02-02T03:14:29.864Z,74.18
2023-02-02T03:16:57.053Z,74.02
2023-02-02T03:19:24.297Z,74.04
2023-02-02T03:21:51.427Z,74.01
2023-02-02T03:24:18.673Z,74.09
2023-02-02T03:26:46.735Z,74.10
2023-02-02T03:29:14.128Z,74.05
2023-02-02T03:31:41.424Z,74.00
2023-02-02T03:34:08.762Z,74.01
2023-02-02T03:36:36.011Z,74.13
2023-02-02T03:39:03.224Z,73.99
2023-02-02T03:41:30.415Z,74.05
2023-02-02T03:43:57.695Z,74.08
2023-02-02T03:46:25.076Z,74.10
2023-02-02T03:48:52.278Z,74.10
2023-02-02T03:51:19.461Z,74.00
2023-02-02T03:53:49.589Z,74.09
2023-02-02T03:56:17.288Z,74.10
2023-02-02T03:58:46.461Z,74.03
2023-02-02T04:01:14.021Z,74.12
2023-02-02T04:03:41.410Z,74.09
2023-02-02T04:06:09.193Z,74.08
2023-02-02T04:08:36.367Z,74.23
2023-02-02T04:11:03.571Z,74.20
2023-02-02T04:13:30.979Z,74.07
2023-02-02T04:16:00.161Z,74.10
2023-02-02T04:18:28.144Z,74.19
2023-02-02T04:20:59.935Z,74.20
2023-02-02T04:23:28.542Z,74.20
2023-02-02T04:25:56.127Z,74.20
2023-02-02T04:28:23.989Z,74.19
2023-02-02T04:30:55.428Z,74.19
2023-02-02T04:33:24.427Z,74.14
2023-02-02T04:35:52.000Z,74.20
2023-02-02T04:38:19.693Z,74.11
2023-02-02T04:40:48.244Z,74.13
2023-02-02T04:43:15.676Z,74.15
2023-02-02T04:45:42.981Z,74.18
2023-02-02T04:48:10.259Z,74.08
2023-02-02T04:50:37.516Z,74.13
2023-02-02T04:53:05.069Z,74.29
2023-02-02T04:55:36.533Z,74.31
2023-02-02T04:58:04.755Z,74.15
2023-02-02T05:00:31.980Z,74.21
2023-02-02T05:03:00.528Z,74.14
2023-02-02T05:05:27.747Z,74.10
2023-02-02T05:07:54.971Z,74.15
2023-02-02T05:10:22.232Z,74.26
2023-02-02T05:12:49.369Z,74.13
2023-02-02T05:15:16.574Z,74.20
2023-02-02T05:17:43.799Z,74.16
2023-02-02T05:20:11.660Z,74.19
2023-02-02T05:22:39.304Z,74.10
2023-02-02T05:25:07.340Z,74.26
2023-02-02T05:27:34.842Z,74.32
2023-02-02T05:30:02.291Z,74.23
2023-02-02T05:32:29.967Z,74.22
2023-02-02T05:34:57.206Z,74.22
2023-02-02T05:37:24.360Z,74.19
2023-02-02T05:39:53.785Z,74.10
2023-02-02T05:42:21.475Z,74.12
2023-02-02T05:44:48.624Z,74.19
2023-02-02T05:47:15.808Z,74.14
2023-02-02T05:49:43.004Z,74.27
2023-02-02T05:52:17.871Z,74.25
2023-02-02T05:54:45.129Z,74.16
2023-02-02T05:57:12.392Z,74.21
2023-02-02T05:59:39.594Z,74.28
2023-02-02T06:02:06.819Z,74.24
2023-02-02T06:04:33.971Z,74.26
2023-02-02T06:07:01.047Z,74.19
2023-02-02T06:09:28.219Z,74.19
2023-02-02T06:11:55.397Z,74.47
2023-02-02T06:14:22.600Z,74.39
2023-02-02T06:16:49.867Z,74.33
2023-02-02T06:19:17.181Z,74.30
2023-02-02T06:21:44.407Z,74.32
2023-02-02T06:24:11.620Z,74.18
2023-02-02T06:26:39.064Z,74.22
2023-02-02T06:29:06.976Z,74.13
2023-02-02T06:31:34.469Z,74.22
2023-02-02T06:34:01.801Z,74.32
2023-02-02T06:36:29.005Z,74.32
2023-02-02T06:38:57.637Z,74.23
2023-02-02T06:41:25.361Z,74.31
2023-02-02T06:43:52.738Z,74.47
2023-02-02T06:46:20.047Z,74.42
2023-02-02T06:48:47.392Z,74.34
2023-02-02T06:51:15.052Z,74.27
2023-02-02T06:53:42.226Z,74.35
2023-02-02T06:56:12.555Z,74.39
2023-02-02T06:58:40.098Z,74.29
2023-02-02T07:01:12.229Z,74.31
2023-02-02T07:03:39.952Z,74.36
2023-02-02T07:06:14.546Z,74.40
2023-02-02T07:08:42.365Z,74.54
2023-02-02T07:11:14.578Z,74.52
2023-02-02T07:13:47.157Z,74.67
2023-02-02T07:16:15.647Z,74.71
2023-02-02T07:18:43.637Z,74.66
2023-02-02T07:21:18.190Z,74.73
2023-02-02T07:23:45.875Z,74.43
2023-02-02T07:26:14.387Z,74.53
2023-02-02T07:28:42.048Z,74.51
2023-02-02T07:31:24.483Z,74.53
2023-02-02T07:33:53.009Z,74.65
2023-02-02T07:36:21.867Z,74.53
2023-02-02T07:38:53.982Z,74.54
2023-02-02T07:41:22.237Z,74.39
2023-02-02T07:43:50.573Z,74.68
2023-02-02T07:46:18.765Z,74.47
2023-02-02T07:48:46.026Z,74.55
2023-02-02T07:51:16.072Z,74.53
2023-02-02T07:53:45.336Z,74.61
2023-02-02T07:56:20.949Z,74.65
2023-02-02T07:58:48.428Z,74.58
2023-02-02T08:01:17.028Z,74.53
2023-02-02T08:03:44.808Z,74.59
2023-02-02T08:06:16.067Z,74.71
2023-02-02T08:08:43.305Z,74.79
2023-02-02T08:11:12.283Z,74.88
2023-02-02T08:13:41.086Z,74.71
2023-02-02T08:16:09.400Z,74.73
2023-02-02T08:18:37.565Z,74.68
2023-02-02T08:21:06.496Z,74.60
2023-02-02T08:23:33.709Z,74.72
2023-02-02T08:26:06.985Z,74.61
2023-02-02T08:28:35.518Z,74.65
2023-02-02T08:31:11.430Z,74.59
2023-02-02T08:33:39.760Z,74.62
2023-02-02T08:36:22.688Z,74.57
2023-02-02T08:38:50.965Z,74.61
2023-02-02T08:41:21.248Z,74.68
2023-02-02T08:43:48.954Z,74.77
2023-02-02T08:46:18.590Z,74.70
2023-02-02T08:48:46.019Z,74.67
2023-02-02T08:51:15.910Z,74.61
2023-02-02T08:53:43.369Z,74.75
2023-02-02T08:56:19.897Z,74.80
2023-02-02T08:58:49.526Z,74.52
2023-02-02T09:01:25.853Z,74.46
2023-02-02T09:04:01.204Z,74.49
2023-02-02T09:06:32.555Z,74.67
2023-02-02T09:09:00.116Z,74.75
2023-02-02T09:11:28.292Z,74.70
2023-02-02T09:13:57.591Z,74.68
2023-02-02T09:16:26.593Z,74.63
2023-02-02T09:18:55.321Z,74.56
2023-02-02T09:21:22.987Z,74.55
2023-02-02T09:23:51.684Z,74.66
2023-02-02T09:26:24.561Z,74.41
2023-02-02T09:28:57.433Z,74.41
2023-02-02T09:31:26.220Z,74.57
2023-02-02T09:33:53.738Z,74.48
2023-02-02T09:36:24.287Z,74.44
2023-02-02T09:38:51.658Z,74.50
2023-02-02T09:41:27.583Z,74.64
2023-02-02T09:43:57.496Z,74.57
2023-02-02T09:46:40.084Z,74.55
2023-02-02T09:49:12.565Z,74.47
2023-02-02T09:51:55.384Z,74.37
2023-02-02T09:54:33.841Z,74.43
2023-02-02T09:57:05.933Z,74.50
2023-02-02T09:59:39.866Z,74.63
2023-02-02T10:02:22.737Z,74.70
2023-02-02T10:04:58.596Z,74.56
2023-02-02T10:07:37.623Z,74.67
2023-02-02T10:10:26.901Z,74.51
2023-02-02T10:13:10.580Z,74.34
2023-02-02T10:15:56.666Z,74.48
2023-02-02T10:18:29.993Z,74.55
2023-02-02T10:21:03.010Z,74.55
2023-02-02T10:23:39.331Z,74.67
2023-02-02T10:26:19.257Z,74.74
2023-02-02T10:29:09.180Z,74.62
2023-02-02T10:32:10.632Z,74.54
2023-02-02T10:35:13.649Z,74.61
2023-02-02T10:37:54.443Z,74.47
2023-02-02T10:40:40.115Z,74.56
2023-02-02T10:43:47.672Z,74.52
2023-02-02T10:46:26.279Z,74.72
2023-02-02T10:49:20.682Z,74.63
2023-02-02T10:52:17.741Z,74.59
2023-02-02T10:55:04.001Z,74.66
2023-02-02T10:57:44.197Z,74.60
2023-02-02T11:00:22.981Z,74.46
2023-02-02T11:02:52.694Z,74.60
2023-02-02T11:05:41.758Z,74.51
2023-02-02T11:08:17.856Z,74.56
2023-02-02T11:10:46.751Z,74.50
2023-02-02T11:14:06.607Z,74.63
2023-02-02T11:16:43.770Z,74.65
2023-02-02T11:19:17.588Z,74.76
2023-02-02T11:21:50.549Z,74.79
2023-02-02T11:24:44.725Z,74.67
2023-02-02T11:27:20.092Z,74.53
2023-02-02T11:29:51.888Z,74.61
2023-02-02T11:32:30.748Z,74.56
2023-02-02T11:35:06.941Z,74.54
2023-02-02T11:37:51.934Z,74.51
2023-02-02T11:40:31.010Z,74.58
2023-02-02T11:43:01.117Z,74.51
2023-02-02T11:45:37.617Z,74.53
2023-02-02T11:48:15.816Z,74.43
2023-02-02T11:50:49.292Z,74.34
2023-02-02T11:53:42.961Z,74.34
2023-02-02T11:56:18.936Z,74.36
2023-02-02T11:58:55.796Z,74.39
2023-02-02T12:01:35.051Z,74.31
2023-02-02T12:04:21.636Z,74.13
2023-02-02T12:06:48.939Z,74.09
2023-02-02T12:09:24.647Z,74.03
2023-02-02T12:12:03.955Z,74.12
2023-02-02T12:15:09.706Z,74.17
2023-02-02T12:17:45.254Z,74.09
2023-02-02T12:20:36.784Z,74.21
2023-02-02T12:23:32.291Z,74.29
2023-02-02T12:26:13.459Z,74.41
2023-02-02T12:28:40.727Z,74.24
2023-02-02T12:31:13.898Z,74.12
2023-02-02T12:33:53.619Z,74.04
2023-02-02T12:36:29.418Z,73.99
2023-02-02T12:39:08.989Z,73.98
2023-02-02T12:41:42.561Z,73.88
2023-02-02T12:44:15.879Z,73.96
2023-02-02T12:46:46.079Z,73.80
2023-02-02T12:49:39.824Z,73.74
2023-02-02T12:52:22.145Z,73.73
2023-02-02T12:55:17.014Z,73.80
2023-02-02T12:58:01.078Z,73.96
2023-02-02T13:00:42.793Z,73.95
2023-02-02T13:03:21.133Z,74.05
2023-02-02T13:06:20.083Z,73.95
2023-02-02T13:09:02.769Z,73.86
2023-02-02T13:11:36.328Z,74.02
2023-02-02T13:14:21.349Z,74.06
2023-02-02T13:16:54.362Z,74.06
2023-02-02T13:19:45.425Z,73.87
2023-02-02T13:22:18.480Z,73.99
2023-02-02T13:24:49.629Z,74.05
2023-02-02T13:27:20.926Z,74.16
2023-02-02T13:29:53.920Z,74.20
2023-02-02T13:32:24.085Z,73.97
2023-02-02T13:34:59.128Z,73.95
2023-02-02T13:37:32.299Z,74.01
2023-02-02T13:40:04.911Z,74.01
2023-02-02T13:43:17.468Z,73.99
2023-02-02T13:45:51.295Z,73.84
2023-02-02T13:48:36.939Z,73.73
2023-02-02T13:51:13.314Z,73.92
2023-02-02T13:53:52.394Z,73.63
2023-02-02T13:56:38.775Z,73.67
2023-02-02T13:59:15.069Z,73.83
2023-02-02T14:01:50.194Z,73.92
2023-02-02T14:04:25.538Z,73.95
2023-02-02T14:06:58.669Z,73.76
2023-02-02T14:09:28.952Z,73.75
2023-02-02T14:12:00.176Z,73.67
2023-02-02T14:14:33.554Z,73.76
2023-02-02T14:17:19.515Z,73.75
2023-02-02T14:19:55.508Z,73.66
2023-02-02T14:22:51.840Z,73.69
2023-02-02T14:25:34.414Z,73.73
2023-02-02T14:28:04.927Z,73.55
2023-02-02T14:30:38.786Z,73.55
2023-02-02T14:33:24.132Z,73.47
2023-02-02T14:35:52.920Z,73.49
2023-02-02T14:38:26.369Z,73.63
2023-02-02T14:41:44.210Z,73.48
2023-02-02T14:44:11.434Z,73.49
2023-02-02T14:46:41.050Z,73.64
2023-02-02T14:49:13.700Z,73.59
2023-02-02T14:52:20.816Z,73.53
2023-02-02T14:54:49.319Z,73.37
2023-02-02T14:57:27.938Z,73.52
2023-02-02T14:59:59.966Z,73.49
2023-02-02T15:02:33.797Z,73.40
2023-02-02T15:05:29.057Z,73.31
2023-02-02T15:08:11.413Z,73.39
2023-02-02T15:10:48.389Z,73.35
2023-02-02T15:13:19.173Z,73.35
2023-02-02T15:15:49.759Z,73.39
2023-02-02T15:18:29.674Z,73.54
2023-02-02T15:21:01.362Z,73.52
2023-02-02T15:23:41.496Z,73.60
2023-02-02T15:26:33.094Z,73.44
2023-02-02T15:29:13.993Z,73.38
2023-02-02T15:31:47.608Z,73.35
2023-02-02T15:34:21.880Z,73.51
2023-02-02T15:36:54.181Z,73.49
2023-02-02T15:39:30.080Z,73.48
2023-02-02T15:42:17.891Z,73.56
2023-02-02T15:44:45.814Z,73.34
2023-02-02T15:47:18.769Z,73.46
2023-02-02T15:49:46.436Z,73.50
2023-02-02T15:52:19.099Z,73.54
2023-02-02T15:54:56.845Z,73.42
2023-02-02T15:57:36.610Z,73.46
2023-02-02T16:00:30.108Z,73.46
2023-02-02T16:03:27.102Z,73.40
2023-02-02T16:05:56.763Z,73.51
2023-02-02T16:08:32.955Z,73.53
2023-02-02T16:11:10.645Z,73.51
2023-02-02T16:13:39.205Z,73.64
2023-02-02T16:16:29.111Z,73.56
2023-02-02T16:19:14.706Z,73.68
2023-02-02T16:22:07.829Z,73.76
2023-02-02T16:24:39.031Z,73.57
2023-02-02T16:27:10.304Z,73.45
2023-02-02T16:29:40.318Z,73.47
2023-02-02T16:32:26.811Z,73.59
2023-02-02T16:34:54.415Z,73.45
2023-02-02T16:37:28.402Z,73.52
2023-02-02T16:39:58.097Z,73.26
2023-02-02T16:42:30.518Z,73.38
2023-02-02T16:44:59.990Z,73.42
2023-02-02T16:47:27.249Z,73.40
2023-02-02T16:50:06.025Z,73.32
2023-02-02T16:52:35.259Z,73.34
2023-02-02T16:55:04.688Z,73.28
2023-02-02T16:57:34.497Z,73.29
2023-02-02T17:00:09.170Z,73.22
2023-02-02T17:02:41.117Z,73.25
2023-02-02T17:05:18.125Z,73.30
2023-02-02T17:07:58.467Z,73.22
2023-02-02T17:10:33.105Z,73.31
2023-02-02T17:13:02.281Z,73.18
2023-02-02T17:15:35.696Z,73.25
2023-02-02T17:18:05.321Z,73.24
2023-02-02T17:20:34.782Z,73.17
2023-02-02T17:23:05.244Z,73.21
2023-02-02T17:25:37.207Z,73.25
2023-02-02T17:28:10.003Z,73.12
2023-02-02T17:30:39.776Z,73.30
2023-02-02T17:33:14.937Z,73.25
2023-02-02T17:35:53.722Z,73.12
2023-02-02T17:38:22.068Z,73.20
2023-02-02T17:40:50.682Z,73.19
2023-02-02T17:43:18.061Z,73.25
2023-02-02T17:45:45.423Z,73.28
2023-02-02T17:48:14.204Z,73.21
2023-02-02T17:50:42.943Z,73.33
2023-02-02T17:53:17.671Z,73.24
2023-02-02T17:55:46.413Z,73.18
2023-02-02T17:58:17.281Z,73.18
2023-02-02T18:00:48.013Z,73.23
2023-02-02T18:03:24.010Z,73.27
2023-02-02T18:05:51.723Z,73.29
2023-02-02T18:08:19.161Z,73.26
2023-02-02T18:10:46.309Z,73.21
2023-02-02T18:13:19.476Z,73.35
2023-02-02T18:15:47.550Z,73.42
2023-02-02T18:18:14.885Z,73.41
2023-02-02T18:20:47.075Z,73.31
2023-02-02T18:23:15.377Z,73.17
2023-02-02T18:25:43.317Z,73.21
2023-02-02T18:28:11.157Z,73.13
2023-02-02T18:30:39.694Z,73.05
2023-02-02T18:33:10.880Z,73.19
2023-02-02T18:35:42.657Z,73.27
2023-02-02T18:38:11.031Z,73.31
2023-02-02T18:40:38.600Z,73.15
2023-02-02T18:43:05.766Z,73.30
2023-02-02T18:45:33.019Z,73.23
2023-02-02T18:48:00.166Z,73.24
2023-02-02T18:50:27.681Z,73.28
2023-02-02T18:52:56.936Z,73.25
2023-02-02T18:55:24.612Z,73.33
2023-02-02T18:57:52.830Z,73.23
2023-02-02T19:00:22.119Z,73.16
2023-02-02T19:02:49.450Z,73.15
2023-02-02T19:05:35.845Z,73.24
2023-02-02T19:08:04.204Z,73.18
2023-02-02T19:10:31.715Z,73.17
2023-02-02T19:13:12.506Z,73.16
2023-02-02T19:15:41.802Z,73.13
2023-02-02T19:18:15.526Z,73.07
2023-02-02T19:20:43.337Z,73.09
2023-02-02T19:23:11.987Z,73.00
2023-02-02T19:25:45.524Z,73.00
2023-02-02T19:28:25.904Z,73.02
2023-02-02T19:30:55.423Z,73.03
2023-02-02T19:33:32.700Z,73.05
2023-02-02T19:36:00.001Z,73.07
2023-02-02T19:38:29.690Z,73.15
2023-02-02T19:40:57.053Z,73.04
2023-02-02T19:43:27.906Z,73.02
2023-02-02T19:45:59.611Z,72.99
2023-02-02T19:48:34.977Z,72.97
2023-02-02T19:51:42.166Z,72.93
2023-02-02T19:54:29.209Z,72.84
2023-02-02T19:57:31.205Z,72.99
2023-02-02T20:00:01.015Z,72.89
2023-02-02T20:03:05.234Z,72.97
2023-02-02T20:05:39.102Z,72.76
2023-02-02T20:08:18.200Z,72.78
2023-02-02T20:10:46.324Z,72.77
2023-02-02T20:13:18.836Z,72.78
2023-02-02T20:15:47.227Z,72.87
2023-02-02T20:18:21.878Z,72.83
2023-02-02T20:20:57.152Z,72.87
2023-02-02T20:23:43.869Z,72.78
2023-02-02T20:26:26.131Z,72.87
2023-02-02T20:29:03.834Z,72.72
2023-02-02T20:31:40.850Z,72.70
2023-02-02T20:34:25.993Z,72.77
2023-02-02T20:36:58.430Z,72.82
2023-02-02T20:39:34.469Z,72.81
2023-02-02T20:42:02.712Z,72.72
2023-02-02T20:44:31.654Z,72.72
2023-02-02T20:47:00.535Z,72.80
2023-02-02T20:49:31.900Z,72.78
2023-02-02T20:52:02.007Z,72.82
2023-02-02T20:54:29.763Z,72.93
2023-02-02T20:56:57.758Z,72.89
2023-02-02T20:59:24.987Z,72.90
2023-02-02T21:01:53.139Z,72.71
2023-02-02T21:04:21.664Z,72.69
2023-02-02T21:06:49.353Z,72.72
2023-02-02T21:09:18.052Z,72.65
2023-02-02T21:11:45.481Z,72.46
2023-02-02T21:14:12.702Z,72.39
2023-02-02T21:16:40.058Z,72.50
2023-02-02T21:19:07.313Z,72.45
2023-02-02T21:21:34.497Z,72.59
2023-02-02T21:24:02.068Z,72.57
2023-02-02T21:26:30.923Z,72.54
2023-02-02T21:28:59.108Z,72.45
2023-02-02T21:31:27.235Z,72.41
2023-02-02T21:33:54.704Z,72.43
2023-02-02T21:36:38.484Z,72.36
2023-02-02T21:39:16.156Z,72.39
2023-02-02T21:41:43.974Z,72.50
2023-02-02T21:44:19.785Z,72.30
2023-02-02T21:46:50.358Z,72.47
2023-02-02T21:49:24.266Z,72.43
2023-02-02T21:51:54.805Z,72.38
2023-02-02T21:54:27.402Z,72.33
2023-02-02T21:56:55.179Z,72.36
2023-02-02T21:59:24.895Z,72.39
2023-02-02T22:01:52.907Z,72.38
2023-02-02T22:04:23.021Z,72.48
2023-02-02T22:06:53.265Z,72.52
2023-02-02T22:09:23.843Z,72.39
2023-02-02T22:11:53.200Z,72.32
2023-02-02T22:14:39.117Z,72.25
2023-02-02T22:17:33.120Z,72.24
2023-02-02T22:20:03.068Z,72.29
2023-02-02T22:22:35.471Z,72.33
2023-02-02T22:25:21.072Z,72.23
2023-02-02T22:27:53.064Z,72.00
2023-02-02T22:30:36.960Z,72.09
2023-02-02T22:33:06.584Z,72.11
2023-02-02T22:35:34.489Z,71.92
2023-02-02T22:38:02.638Z,72.03
2023-02-02T22:40:30.500Z,72.11
2023-02-02T22:43:00.231Z,72.07
2023-02-02T22:45:28.251Z,71.97
2023-02-02T22:47:55.532Z,72.09
2023-02-02T22:50:26.160Z,71.93
2023-02-02T22:52:53.592Z,71.86
2023-02-02T22:55:20.903Z,71.93
2023-02-02T22:57:48.488Z,72.00
2023-02-02T23:00:22.210Z,72.05
2023-02-02T23:02:49.476Z,71.97
2023-02-02T23:05:18.538Z,71.97
2023-02-02T23:07:47.711Z,71.93
2023-02-02T23:10:18.345Z,71.95
2023-02-02T23:12:46.823Z,71.91
2023-02-02T23:15:14.639Z,71.93
2023-02-02T23:17:42.231Z,72.02
2023-02-02T23:20:13.626Z,72.05
2023-02-02T23:22:40.930Z,72.00
2023-02-02T23:25:09.104Z,71.85
2023-02-02T23:27:36.620Z,71.86
2023-02-02T23:30:04.448Z,71.80
2023-02-02T23:32:31.682Z,71.83
2023-02-02T23:34:58.963Z,71.98
2023-02-02T23:37:26.239Z,71.94
2023-02-02T23:39:53.446Z,71.84
2023-02-02T23:42:20.694Z,71.75
2023-02-02T23:44:48.156Z,71.79
2023-02-02T23:47:15.867Z,71.83
2023-02-02T23:49:43.759Z,71.82
2023-02-02T23:52:11.471Z,71.73
2023-02-02T23:54:39.109Z,71.70
2023-02-02T23:57:06.418Z,71.83
2023-02-02T23:59:33.665Z,71.78
